Malad City, ID

07:22 AM MDT am 23. Mai 2015 (GMT -0600)
Middle of city block | | Change Station
CLOSE
Current Station
Persönliche Wetterstationen
Location: Malad City, ID
Höhe: 4662 ft
Wetterstationen in der Umgebung

Höhe 4662 ft 42.20 °N, 112.26 °W | Updated 11 seconds ago

Bedeckt
Bedeckt
48.6 °F
gefühlte 47 °F
N
5.0
Wind Wechselnd Wind aus Südost
Gusts 6.0 mph

Heute
Max. -- | schwach -- °F
--% Regenrisiko
Gestern
Max. -- | schwach -- °F
Precip. -- inch
6:01 AM 8:51 PM
Erstes Viertel, 30% visible
Druck 29.85 inch
Sichtweite 5.0 Meilen
Wolken Bedeckt 3900 ft
Windchill 47 °F
Taupunkt 21 °F
Feuchtigkeit 31%
Regen 0.05 inch
Schneehöhe Nicht verfügbar..
UV 0 von 12
Pollen 1.30 von 12
Luftqualität Nicht verfügbar..
Flu Activity Sporadic
METAR KLGU 231251Z AUTO 00000KT 5SM RA BR OVC039 09/08 A2992 RMK AO2 SLP106 P0010 T00940083 TSNO

More Conditions Fewer Conditions

Druck 29.85 inch
Sichtweite 5.0 Meilen
Wolken Bedeckt 3900 ft
Windchill 47 °F
Taupunkt 21 °F
Feuchtigkeit 31%
Regen 0.05 inch
Schneehöhe Nicht verfügbar..
UV 0 von 12
Pollen 1.30 von 12
Luftqualität Nicht verfügbar..
Flu Activity Sporadic
METAR KLGU 231251Z AUTO 00000KT 5SM RA BR OVC039 09/08 A2992 RMK AO2 SLP106 P0010 T00940083 TSNO

More Conditions Fewer Conditions

10-Day Weather Forecast

Almanac

Astronomie

May. 23, 2015 Aufgang Untergang
Genaue Zeit
Bürgerliche Dämmerung
Nautische Dämmerung
Astronomische Dämmerung
Mond
Länge des sichtbaren Lichts
Tageslänge
Tomorrow will be .
, % of the Moon is Illuminated

Heutige Rekorde

State Highs State Lows

Community

WunderPhotos

Upload Photos

1,823,458 Fotos hochgeladen!

WunderBlogs® & News

Nearby

Luftqualität

  Luftqualität LQ Index Schadstoff
Not available.

Schneehöhe

Station Depth Höhe

Erdbebenaktivität

Stadt Distance Mag. Time & Date
Minimum magnitude displayed is 2.5.

küstennahe Wassertemperaturen

Ort Temperatur

Stations

Wetterstationen in der Umgebung

Stationsstandort Temp. Windchill Taupunkt Feuchtigkeit Wind Precip. Höhe Aktualisiert Art